Time;durP1;ratioP1;P1;durP2;ratioP2;P2;SDS_P1;SDS_P2;PMS_P1;PMS_P2;Temp;Humidity;BMP_temperature;BMP_pressure;BME280_temperature;BME280_humidity;BME280_pressure;Samples;Min_cycle;Max_cycle;Signal;HPM_P1;HPM_P2
2021/12/07 00:02:09;;;;;;;20.00;3.03;;;6.20;99.90;;;;;;5055907;27;20035;-77
2021/12/07 00:04:35;;;;;;;19.42;2.95;;;6.20;99.90;;;;;;5050664;28;20517;-78
2021/12/07 00:07:02;;;;;;;14.35;2.80;;;6.30;99.90;;;;;;5066978;27;20406;-77
2021/12/07 00:09:28;;;;;;;25.38;3.20;;;6.30;99.90;;;;;;5088996;27;20027;-77
2021/12/07 00:11:53;;;;;;;19.92;3.47;;;6.30;99.90;;;;;;5067405;27;20025;-78
2021/12/07 00:14:23;;;;;;;19.55;2.75;;;6.40;99.90;;;;;;5049837;27;20044;-77
2021/12/07 00:16:50;;;;;;;22.35;3.10;;;6.50;99.90;;;;;;5058061;27;20025;-77
2021/12/07 00:19:16;;;;;;;26.00;3.25;;;6.50;99.90;;;;;;5049241;28;20033;-77
2021/12/07 00:21:43;;;;;;;19.58;2.83;;;6.50;99.90;;;;;;5049417;27;20040;-77
2021/12/07 00:24:11;;;;;;;19.45;3.33;;;6.50;99.90;;;;;;5049242;28;20053;-77
2021/12/07 00:26:39;;;;;;;15.30;2.40;;;6.50;99.90;;;;;;5047855;28;20115;-78
2021/12/07 00:29:07;;;;;;;21.85;3.28;;;6.50;99.90;;;;;;5049286;28;20025;-76
2021/12/07 00:31:40;;;;;;;17.40;3.10;;;6.50;99.90;;;;;;5049090;28;20100;-76
2021/12/07 00:34:18;;;;;;;22.67;2.80;;;6.50;99.90;;;;;;5048473;28;20029;-77
2021/12/07 00:36:47;;;;;;;18.58;2.67;;;6.50;99.90;;;;;;5047855;28;20375;-77
2021/12/07 00:39:20;;;;;;;18.80;2.95;;;6.60;99.90;;;;;;5049529;28;20017;-77
2021/12/07 00:41:46;;;;;;;19.02;3.33;;;6.60;99.90;;;;;;5049323;28;20055;-77
2021/12/07 00:44:12;;;;;;;16.77;2.60;;;6.60;99.90;;;;;;5049068;28;20064;-78
2021/12/07 00:46:38;;;;;;;22.20;2.80;;;6.50;99.90;;;;;;5048848;27;20489;-77
2021/12/07 00:49:04;;;;;;;13.07;2.60;;;6.50;99.90;;;;;;5047797;27;20439;-78
2021/12/07 00:51:31;;;;;;;17.38;2.65;;;6.50;99.90;;;;;;5049356;27;20121;-78
2021/12/07 00:53:56;;;;;;;22.55;3.85;;;6.50;99.90;;;;;;5049140;28;20025;-77
2021/12/07 00:56:22;;;;;;;15.52;2.30;;;6.50;99.90;;;;;;5048615;27;20052;-77
2021/12/07 00:58:49;;;;;;;17.95;3.20;;;6.50;99.90;;;;;;5049272;28;20470;-76
2021/12/07 01:01:17;;;;;;;18.88;2.65;;;6.50;99.90;;;;;;5047185;28;20029;-77
2021/12/07 01:03:43;;;;;;;19.83;2.90;;;6.50;99.90;;;;;;5045818;28;20021;-76
2021/12/07 01:06:33;;;;;;;20.60;2.85;;;6.40;99.90;;;;;;5048561;27;20026;-77
2021/12/07 01:25:38;;;;;;;18.08;3.28;;;6.50;99.90;;;;;;5048852;28;20055;-77
2021/12/07 01:28:13;;;;;;;25.08;3.10;;;6.50;99.90;;;;;;5113006;27;20027;-77
2021/12/07 01:30:51;;;;;;;17.40;3.03;;;6.50;99.90;;;;;;5086416;27;20031;-78
2021/12/07 01:33:32;;;;;;;12.18;2.92;;;6.40;99.90;;;;;;5048492;28;20044;-77
2021/12/07 01:42:54;;;;;;;20.73;3.58;;;6.40;99.90;;;;;;5075449;27;20037;-77
2021/12/07 01:44:35;;;;;;;16.80;3.03;;;6.40;99.90;;;;;;5034255;28;20033;-77
2021/12/07 01:47:23;;;;;;;15.38;2.90;;;6.40;99.90;;;;;;5047970;28;20364;-77
2021/12/07 01:52:44;;;;;;;15.75;2.85;;;6.40;99.90;;;;;;5099975;27;19914;-77
2021/12/07 02:00:42;;;;;;;18.90;3.10;;;6.30;99.90;;;;;;5060401;27;20034;-77
2021/12/07 02:03:08;;;;;;;12.90;2.42;;;6.30;99.90;;;;;;5122832;27;20403;-76
2021/12/07 02:05:34;;;;;;;21.25;2.80;;;6.30;99.90;;;;;;5130656;27;20030;-77
2021/12/07 02:07:59;;;;;;;14.70;2.90;;;6.20;99.90;;;;;;5096593;27;20030;-76
2021/12/07 02:10:29;;;;;;;19.05;3.08;;;6.20;99.90;;;;;;5130733;27;20031;-77
2021/12/07 02:13:02;;;;;;;16.30;2.67;;;6.20;99.90;;;;;;5057353;27;20065;-77
2021/12/07 02:15:29;;;;;;;19.48;2.80;;;6.10;99.90;;;;;;5047644;28;20025;-76
2021/12/07 02:17:55;;;;;;;15.82;2.65;;;6.10;99.90;;;;;;5099561;27;20028;-76
2021/12/07 02:20:22;;;;;;;13.65;2.63;;;6.10;99.90;;;;;;5047648;28;20017;-76
2021/12/07 02:22:48;;;;;;;18.38;2.95;;;6.10;99.90;;;;;;5036852;28;20021;-77
2021/12/07 02:25:16;;;;;;;16.77;3.08;;;6.10;99.90;;;;;;5059203;27;20057;-76
2021/12/07 02:27:42;;;;;;;15.05;2.72;;;6.10;99.90;;;;;;5027589;28;20071;-76
2021/12/07 02:30:11;;;;;;;13.20;2.50;;;6.10;99.90;;;;;;5027783;28;20026;-76
2021/12/07 02:32:37;;;;;;;14.88;2.97;;;6.10;99.90;;;;;;5027453;28;20458;-77
2021/12/07 02:35:04;;;;;;;17.63;2.78;;;6.20;99.90;;;;;;5027700;28;20031;-77
2021/12/07 02:37:33;;;;;;;12.00;2.30;;;6.20;99.90;;;;;;5053878;27;20027;-76
2021/12/07 02:39:59;;;;;;;17.63;2.83;;;6.20;99.90;;;;;;5131475;27;20099;-76
2021/12/07 02:42:26;;;;;;;13.50;2.50;;;6.20;99.90;;;;;;5128798;27;20025;-77
2021/12/07 02:44:53;;;;;;;16.15;2.42;;;6.20;99.90;;;;;;5079154;27;20025;-77
2021/12/07 02:47:20;;;;;;;21.90;3.10;;;6.20;99.90;;;;;;5077882;27;20058;-77
2021/12/07 02:49:46;;;;;;;17.23;2.47;;;6.20;99.90;;;;;;5108358;27;20464;-77
2021/12/07 02:52:12;;;;;;;16.38;2.70;;;6.20;99.90;;;;;;5047088;28;20116;-77
2021/12/07 02:54:49;;;;;;;18.38;2.75;;;6.30;99.90;;;;;;5046135;28;20453;-77
2021/12/07 02:57:17;;;;;;;15.60;2.70;;;6.20;99.90;;;;;;5049292;28;20028;-77
2021/12/07 02:59:52;;;;;;;16.67;2.67;;;6.20;99.90;;;;;;5051018;28;20025;-77
2021/12/07 03:02:19;;;;;;;17.63;3.10;;;6.20;99.90;;;;;;5065378;27;20020;-76
2021/12/07 03:04:59;;;;;;;15.68;2.58;;;6.10;99.90;;;;;;5135974;27;20055;-76
2021/12/07 03:08:04;;;;;;;18.00;2.30;;;6.10;99.90;;;;;;5094758;27;20023;-77
2021/12/07 03:26:58;;;;;;;16.63;2.40;;;6.10;99.90;;;;;;5050495;28;20093;-77
2021/12/07 03:29:24;;;;;;;14.38;2.55;;;6.10;99.90;;;;;;5091042;27;20304;-78
2021/12/07 03:31:50;;;;;;;16.58;2.70;;;6.10;99.90;;;;;;5049930;28;20060;-77
2021/12/07 03:34:15;;;;;;;13.30;2.60;;;6.10;99.90;;;;;;5050099;28;20047;-77
2021/12/07 03:36:41;;;;;;;24.05;3.05;;;6.10;99.90;;;;;;5042400;28;20029;-76
2021/12/07 03:39:07;;;;;;;17.58;2.63;;;6.10;99.90;;;;;;5088635;27;20083;-76
2021/12/07 03:41:34;;;;;;;11.27;2.70;;;6.10;99.90;;;;;;5089005;27;20028;-77
2021/12/07 03:44:00;;;;;;;17.85;2.58;;;6.10;99.90;;;;;;5107151;27;20027;-78
2021/12/07 03:46:26;;;;;;;14.88;2.67;;;6.10;99.90;;;;;;5116491;27;20368;-77
2021/12/07 03:48:52;;;;;;;14.98;2.65;;;6.10;99.90;;;;;;5094555;27;20029;-77
2021/12/07 03:51:18;;;;;;;19.13;2.60;;;6.10;99.90;;;;;;5107842;27;20050;-77
2021/12/07 03:53:44;;;;;;;16.05;2.50;;;6.10;99.90;;;;;;5126513;27;20027;-77
2021/12/07 03:56:10;;;;;;;11.98;2.40;;;6.10;99.90;;;;;;5049683;28;20482;-77
2021/12/07 03:58:37;;;;;;;16.02;2.20;;;6.20;99.90;;;;;;5064990;27;20466;-76
2021/12/07 04:01:05;;;;;;;12.73;2.25;;;6.20;99.90;;;;;;5049868;28;20040;-77
2021/12/07 04:03:34;;;;;;;13.63;2.40;;;6.20;99.90;;;;;;5112417;27;20414;-76
2021/12/07 04:06:04;;;;;;;13.20;2.00;;;6.20;99.90;;;;;;5132197;27;20102;-76
2021/12/07 04:08:30;;;;;;;7.20;1.90;;;6.20;99.90;;;;;;5089301;27;20023;-76
2021/12/07 04:10:56;;;;;;;11.88;2.05;;;6.20;99.90;;;;;;5118401;27;20029;-76
2021/12/07 04:13:25;;;;;;;8.13;1.77;;;6.10;99.90;;;;;;5049526;28;20032;-75
2021/12/07 04:15:50;;;;;;;13.65;2.30;;;6.10;99.90;;;;;;5048148;28;20469;-77
2021/12/07 04:18:17;;;;;;;12.38;2.47;;;6.00;99.90;;;;;;5054409;27;20081;-76
2021/12/07 04:20:42;;;;;;;14.02;2.17;;;6.00;99.90;;;;;;5049372;28;20508;-76
2021/12/07 04:23:08;;;;;;;16.30;2.83;;;6.00;99.90;;;;;;5100127;27;20107;-76
2021/12/07 04:25:34;;;;;;;17.65;2.60;;;5.90;99.90;;;;;;5128728;27;20047;-77
2021/12/07 04:28:00;;;;;;;12.93;2.60;;;5.90;99.90;;;;;;5062473;27;20120;-76
2021/12/07 04:30:31;;;;;;;15.57;2.90;;;5.90;99.90;;;;;;5049458;28;20025;-77
2021/12/07 04:32:58;;;;;;;16.92;3.17;;;5.80;99.90;;;;;;5049403;28;20042;-76
2021/12/07 04:35:25;;;;;;;9.32;2.53;;;5.80;99.90;;;;;;5076138;27;20020;-77
2021/12/07 04:37:51;;;;;;;10.85;2.05;;;5.80;99.90;;;;;;5101283;27;20554;-77
2021/12/07 04:40:20;;;;;;;13.27;2.53;;;5.90;99.90;;;;;;5122968;27;20023;-77
2021/12/07 04:42:46;;;;;;;17.55;2.63;;;5.80;99.90;;;;;;5054347;27;20074;-77
2021/12/07 04:45:26;;;;;;;13.32;2.28;;;5.80;99.90;;;;;;5049183;28;20067;-76
2021/12/07 04:58:27;;;;;;;13.75;2.40;;;5.70;99.90;;;;;;5053794;27;20055;-77
2021/12/07 05:00:53;;;;;;;14.55;2.83;;;5.70;99.90;;;;;;5111151;27;20466;-77
2021/12/07 05:03:19;;;;;;;18.63;2.53;;;5.70;99.90;;;;;;5048891;28;20036;-76
2021/12/07 05:05:49;;;;;;;16.80;2.58;;;5.70;99.90;;;;;;5084801;27;20019;-76
2021/12/07 05:08:22;;;;;;;13.88;2.40;;;5.60;99.90;;;;;;5128388;27;20472;-76
2021/12/07 05:39:32;;;;;;;12.65;2.35;;;5.40;99.90;;;;;;5109553;27;20095;-76
2021/12/07 05:41:58;;;;;;;12.93;2.10;;;5.40;99.90;;;;;;5129829;27;20272;-76
2021/12/07 05:44:24;;;;;;;15.93;2.92;;;5.30;99.90;;;;;;5048643;28;20431;-76
2021/12/07 05:46:50;;;;;;;19.25;2.40;;;5.30;99.90;;;;;;5048178;28;20021;-76
2021/12/07 05:49:15;;;;;;;8.98;2.03;;;5.30;99.90;;;;;;5056756;27;20036;-76
2021/12/07 05:51:41;;;;;;;9.63;2.38;;;5.30;99.90;;;;;;5063478;27;20078;-76
2021/12/07 05:54:06;;;;;;;8.70;2.20;;;5.20;99.90;;;;;;5047919;27;20423;-76
2021/12/07 05:56:33;;;;;;;11.00;2.08;;;5.20;99.90;;;;;;5046805;28;20032;-77
2021/12/07 05:58:58;;;;;;;9.35;2.20;;;5.20;99.90;;;;;;5044223;27;20025;-76
2021/12/07 06:01:24;;;;;;;9.98;1.95;;;5.10;99.90;;;;;;5033007;28;20386;-77
2021/12/07 06:03:53;;;;;;;10.57;2.38;;;5.10;99.90;;;;;;5035468;27;20505;-77
2021/12/07 06:06:18;;;;;;;8.48;2.13;;;5.10;99.90;;;;;;5036379;28;20018;-76
2021/12/07 06:08:44;;;;;;;14.05;2.30;;;5.00;99.90;;;;;;5030347;28;20029;-76
2021/12/07 06:11:09;;;;;;;13.52;2.25;;;5.00;99.90;;;;;;5034918;28;20052;-76
2021/12/07 06:13:35;;;;;;;12.50;2.50;;;5.00;99.90;;;;;;5040827;27;20022;-75
2021/12/07 06:16:06;;;;;;;11.98;2.03;;;4.90;99.90;;;;;;5048761;27;20043;-76
2021/12/07 06:18:32;;;;;;;14.60;2.58;;;4.90;99.90;;;;;;5052846;27;20029;-76
2021/12/07 06:20:57;;;;;;;11.25;1.92;;;4.90;99.90;;;;;;5043562;27;20033;-76
2021/12/07 06:23:23;;;;;;;8.07;2.30;;;4.80;99.90;;;;;;5038180;28;20040;-76
2021/12/07 06:25:49;;;;;;;9.35;2.30;;;4.80;99.90;;;;;;5041845;27;20041;-79
2021/12/07 06:28:17;;;;;;;11.38;2.45;;;4.70;99.90;;;;;;5039320;27;20037;-75
2021/12/07 06:30:44;;;;;;;13.52;3.00;;;4.70;99.90;;;;;;5056333;27;20033;-76
2021/12/07 06:33:11;;;;;;;13.48;2.22;;;4.70;99.90;;;;;;5044436;27;20060;-76
2021/12/07 06:35:37;;;;;;;18.58;3.17;;;4.70;99.90;;;;;;5036729;27;20029;-76
2021/12/07 06:38:03;;;;;;;12.02;2.33;;;4.60;99.90;;;;;;5034450;28;20033;-77
2021/12/07 06:40:29;;;;;;;10.27;2.63;;;4.60;99.90;;;;;;5031399;28;20014;-76
2021/12/07 06:42:59;;;;;;;14.65;2.67;;;4.50;99.90;;;;;;5063837;27;20056;-76
2021/12/07 06:45:25;;;;;;;11.18;3.03;;;4.50;99.90;;;;;;5034633;28;20109;-76
2021/12/07 06:47:51;;;;;;;13.75;2.65;;;4.50;99.90;;;;;;5033961;28;20471;-76
2021/12/07 06:50:16;;;;;;;10.65;2.70;;;4.40;99.90;;;;;;5035187;28;20028;-77
2021/12/07 06:52:42;;;;;;;11.85;2.63;;;4.40;99.90;;;;;;5044185;28;20036;-76
2021/12/07 06:55:08;;;;;;;12.45;2.80;;;4.40;99.90;;;;;;5123663;28;20034;-76
2021/12/07 06:57:34;;;;;;;8.50;2.92;;;4.30;99.90;;;;;;5064197;28;20067;-77
2021/12/07 07:00:00;;;;;;;11.88;2.72;;;4.30;99.90;;;;;;5054903;28;20033;-77
2021/12/07 07:02:25;;;;;;;16.50;4.20;;;4.20;99.90;;;;;;5041091;27;20114;-76
2021/12/07 07:04:51;;;;;;;10.07;2.72;;;4.20;99.90;;;;;;5041038;28;20266;-76
2021/12/07 07:07:18;;;;;;;13.98;2.67;;;4.20;99.90;;;;;;5039554;28;20033;-76
2021/12/07 07:09:44;;;;;;;14.77;2.88;;;4.20;99.90;;;;;;5038593;28;20111;-75
2021/12/07 07:12:09;;;;;;;11.52;2.97;;;4.10;99.90;;;;;;5072998;28;20109;-75
2021/12/07 07:14:35;;;;;;;14.60;3.47;;;4.10;99.90;;;;;;5046768;28;20068;-75
2021/12/07 07:17:00;;;;;;;11.40;3.28;;;4.10;99.90;;;;;;5045521;27;20028;-74
2021/12/07 07:19:26;;;;;;;17.80;3.50;;;4.10;99.90;;;;;;5035444;28;20026;-76
2021/12/07 07:21:52;;;;;;;18.63;3.17;;;4.10;99.90;;;;;;5037853;28;20069;-76
2021/12/07 07:24:17;;;;;;;16.13;3.05;;;4.10;99.90;;;;;;5040779;28;20045;-76
2021/12/07 07:26:43;;;;;;;17.98;3.53;;;4.20;99.90;;;;;;5041258;28;20100;-76
2021/12/07 07:29:08;;;;;;;14.57;3.42;;;4.20;99.90;;;;;;5041468;27;20397;-76
2021/12/07 07:31:36;;;;;;;13.82;2.97;;;4.20;99.90;;;;;;5042612;28;20032;-76
2021/12/07 07:34:03;;;;;;;11.82;3.10;;;4.20;99.90;;;;;;5042738;28;20030;-76
2021/12/07 07:36:28;;;;;;;16.75;3.65;;;4.20;99.90;;;;;;5030259;28;20033;-76
2021/12/07 07:38:54;;;;;;;16.98;3.40;;;4.10;99.90;;;;;;5026570;28;20430;-76
2021/12/07 07:41:20;;;;;;;14.13;3.50;;;4.10;99.90;;;;;;5030861;28;20026;-76
2021/12/07 07:43:45;;;;;;;15.30;3.55;;;4.10;99.90;;;;;;5038486;28;20021;-76
2021/12/07 07:46:11;;;;;;;20.25;3.95;;;4.10;99.90;;;;;;5035534;28;20054;-76
2021/12/07 07:48:37;;;;;;;18.77;3.70;;;4.10;99.90;;;;;;5038141;27;20375;-76
2021/12/07 07:51:04;;;;;;;16.50;3.83;;;4.10;99.90;;;;;;5035733;28;20034;-76
2021/12/07 07:53:29;;;;;;;14.82;3.13;;;4.10;99.90;;;;;;5055322;28;20518;-76
2021/12/07 07:55:55;;;;;;;13.98;3.60;;;4.10;99.90;;;;;;5032766;28;20401;-76
2021/12/07 07:58:20;;;;;;;11.02;3.38;;;4.10;99.90;;;;;;5038645;28;20447;-76
2021/12/07 08:00:48;;;;;;;17.70;3.90;;;4.10;99.90;;;;;;5039214;28;20470;-76
2021/12/07 08:03:13;;;;;;;18.02;3.50;;;4.10;99.90;;;;;;5039851;28;20040;-76
2021/12/07 08:05:39;;;;;;;10.68;2.97;;;4.10;99.90;;;;;;5037910;28;20026;-76
2021/12/07 08:08:05;;;;;;;10.65;3.15;;;4.20;99.90;;;;;;5038589;28;20029;-76
2021/12/07 08:10:32;;;;;;;13.70;3.63;;;4.20;99.90;;;;;;5039348;28;20026;-76
2021/12/07 08:13:03;;;;;;;18.48;3.88;;;4.20;99.90;;;;;;5038760;28;20033;-75
2021/12/07 08:15:30;;;;;;;16.08;3.55;;;4.20;99.90;;;;;;5040851;28;20093;-77
2021/12/07 08:17:57;;;;;;;12.07;3.20;;;4.20;99.90;;;;;;5033505;28;20051;-75
2021/12/07 08:20:23;;;;;;;18.70;4.63;;;4.20;99.90;;;;;;5040528;28;20017;-75
2021/12/07 08:22:49;;;;;;;15.13;4.13;;;4.20;99.90;;;;;;5035946;28;20031;-75
2021/12/07 08:25:15;;;;;;;21.35;4.50;;;4.20;99.90;;;;;;5041025;28;20124;-76
2021/12/07 08:27:40;;;;;;;25.55;4.22;;;4.20;99.90;;;;;;5043671;28;20025;-75
2021/12/07 08:30:09;;;;;;;15.45;3.78;;;4.30;99.90;;;;;;5049221;28;20025;-75
2021/12/07 08:32:35;;;;;;;15.82;4.30;;;4.40;99.90;;;;;;5046612;28;20341;-76
2021/12/07 08:35:00;;;;;;;23.63;4.50;;;4.40;99.90;;;;;;5037081;28;20022;-76
2021/12/07 08:37:26;;;;;;;15.82;4.90;;;4.40;99.90;;;;;;5040059;28;20047;-76
2021/12/07 08:39:52;;;;;;;18.08;4.85;;;4.50;99.90;;;;;;5043318;27;20048;-76
2021/12/07 08:42:19;;;;;;;24.92;5.65;;;4.50;99.90;;;;;;5040451;28;20026;-78
2021/12/07 08:44:46;;;;;;;17.10;4.60;;;4.60;99.90;;;;;;5045999;28;20045;-75
2021/12/07 08:47:11;;;;;;;20.05;4.47;;;4.60;99.90;;;;;;5034391;28;20029;-75
2021/12/07 08:49:37;;;;;;;26.75;4.00;;;4.70;99.90;;;;;;5034854;28;20105;-75
2021/12/07 08:52:03;;;;;;;21.58;4.32;;;4.70;99.90;;;;;;5035085;28;20040;-75
2021/12/07 08:59:38;;;;;;;20.85;4.40;;;4.70;99.90;;;;;;5036610;28;20025;-75
2021/12/07 09:00:07;;;;;;;14.45;3.70;;;4.80;99.90;;;;;;5049190;28;20036;-75
2021/12/07 09:02:33;;;;;;;14.98;3.85;;;4.80;99.90;;;;;;5049240;28;20021;-74
2021/12/07 09:04:59;;;;;;;19.17;3.28;;;4.80;99.90;;;;;;5037793;27;20017;-75
2021/12/07 09:07:25;;;;;;;16.67;3.72;;;4.90;99.90;;;;;;5033415;28;20266;-74
2021/12/07 09:09:50;;;;;;;19.70;3.38;;;4.90;99.90;;;;;;5034584;28;20025;-75
2021/12/07 09:12:18;;;;;;;20.35;3.15;;;4.90;99.90;;;;;;5037868;27;20028;-75
2021/12/07 09:14:44;;;;;;;13.98;3.17;;;5.00;99.90;;;;;;5039405;28;20142;-75
2021/12/07 09:17:12;;;;;;;14.52;2.90;;;5.00;99.90;;;;;;5037771;28;20041;-75
2021/12/07 09:19:39;;;;;;;21.65;6.00;;;5.00;99.90;;;;;;5040157;28;20121;-74
2021/12/07 09:22:05;;;;;;;20.55;3.67;;;5.00;99.90;;;;;;5030411;28;20033;-75
2021/12/07 09:24:32;;;;;;;15.63;3.03;;;5.10;99.90;;;;;;5035041;28;20443;-76
2021/12/07 09:26:58;;;;;;;15.20;3.85;;;5.10;99.90;;;;;;5036221;28;20072;-75
2021/12/07 09:29:24;;;;;;;25.00;6.53;;;5.10;99.90;;;;;;5033743;28;20119;-75
2021/12/07 09:31:50;;;;;;;20.30;5.50;;;5.10;99.90;;;;;;5037385;28;20134;-75
2021/12/07 09:34:17;;;;;;;17.02;3.65;;;5.10;99.90;;;;;;5035449;28;20103;-75
2021/12/07 09:36:44;;;;;;;22.20;4.15;;;5.20;99.90;;;;;;5038502;28;20073;-75
2021/12/07 09:39:13;;;;;;;21.77;4.60;;;5.20;99.90;;;;;;5035414;28;20033;-75
2021/12/07 09:41:39;;;;;;;17.35;4.43;;;5.20;99.90;;;;;;5035578;28;20044;-76
2021/12/07 09:44:07;;;;;;;17.80;4.47;;;5.30;99.90;;;;;;5051495;27;20419;-75
2021/12/07 09:46:33;;;;;;;17.67;4.38;;;5.30;99.90;;;;;;5038017;28;20451;-76
2021/12/07 09:48:59;;;;;;;18.33;5.47;;;5.40;99.90;;;;;;5038202;28;20513;-75
2021/12/07 09:51:27;;;;;;;15.38;4.53;;;5.40;99.90;;;;;;5045653;28;20462;-76
2021/12/07 09:53:55;;;;;;;21.75;5.20;;;5.50;99.90;;;;;;5038352;28;20108;-75
2021/12/07 09:56:22;;;;;;;20.00;5.82;;;5.50;99.90;;;;;;5028217;28;20038;-75
2021/12/07 09:58:50;;;;;;;24.10;5.22;;;5.50;99.90;;;;;;5027641;28;20066;-75
2021/12/07 10:01:16;;;;;;;20.98;4.90;;;5.60;99.90;;;;;;5028142;28;20105;-75
2021/12/07 10:03:41;;;;;;;25.45;5.43;;;5.60;99.90;;;;;;5026786;28;20025;-75
2021/12/07 10:06:08;;;;;;;24.30;5.70;;;5.60;99.90;;;;;;5037372;28;20077;-75
2021/12/07 10:08:34;;;;;;;18.10;5.00;;;5.70;99.90;;;;;;5048388;28;20430;-74
2021/12/07 10:11:02;;;;;;;20.02;5.07;;;5.70;99.90;;;;;;5032357;28;20022;-76
2021/12/07 10:13:30;;;;;;;18.88;5.90;;;5.80;99.90;;;;;;5026710;28;20052;-75
2021/12/07 10:15:59;;;;;;;20.55;4.78;;;5.80;99.90;;;;;;5028307;28;20014;-76
2021/12/07 10:18:27;;;;;;;17.98;5.45;;;5.80;99.90;;;;;;5032241;28;20053;-75
2021/12/07 10:20:58;;;;;;;20.10;5.38;;;5.90;99.90;;;;;;5029828;28;20532;-76
2021/12/07 10:23:32;;;;;;;23.77;5.20;;;6.00;99.90;;;;;;5043108;28;20027;-76
2021/12/07 10:26:05;;;;;;;22.90;5.45;;;6.00;99.90;;;;;;5039759;28;20045;-75
2021/12/07 10:28:38;;;;;;;23.10;5.05;;;6.10;99.90;;;;;;5045973;28;20064;-75
2021/12/07 10:31:14;;;;;;;17.05;5.00;;;6.10;99.90;;;;;;5035898;28;20056;-75
2021/12/07 10:33:44;;;;;;;17.42;5.18;;;6.10;99.90;;;;;;5047157;28;20029;-75
2021/12/07 10:36:11;;;;;;;15.75;4.60;;;6.10;99.90;;;;;;5036166;28;20477;-75
2021/12/07 10:38:39;;;;;;;27.55;6.85;;;6.10;99.90;;;;;;5036627;28;20462;-75
2021/12/07 10:41:08;;;;;;;15.20;5.10;;;6.10;99.90;;;;;;5027902;28;20390;-75
2021/12/07 10:43:47;;;;;;;16.08;5.28;;;6.10;99.90;;;;;;5035809;28;20025;-75
2021/12/07 10:46:26;;;;;;;20.02;5.35;;;6.10;99.90;;;;;;5039302;28;20024;-74
2021/12/07 10:49:12;;;;;;;25.83;6.35;;;6.20;99.90;;;;;;5037429;28;20056;-75
2021/12/07 10:51:39;;;;;;;26.33;6.13;;;6.10;99.90;;;;;;5026178;28;20228;-75
2021/12/07 10:54:06;;;;;;;25.77;6.05;;;6.10;99.90;;;;;;5036282;28;20426;-76
2021/12/07 10:56:37;;;;;;;27.38;6.47;;;6.10;99.90;;;;;;5032132;28;20033;-75
2021/12/07 10:59:06;;;;;;;25.75;7.25;;;6.10;99.90;;;;;;5038257;28;20021;-75
2021/12/07 11:01:39;;;;;;;28.38;6.82;;;6.10;99.90;;;;;;5038066;28;20018;-75
2021/12/07 11:04:35;;;;;;;29.80;7.55;;;6.10;99.90;;;;;;5027476;28;20051;-75
2021/12/07 11:07:16;;;;;;;29.95;8.32;;;6.10;99.90;;;;;;5027609;28;20026;-75
2021/12/07 11:10:05;;;;;;;30.85;7.38;;;6.10;99.90;;;;;;5043904;28;20108;-75
2021/12/07 11:12:38;;;;;;;27.83;7.80;;;6.20;99.90;;;;;;5047577;28;20340;-76
2021/12/07 11:15:12;;;;;;;25.80;7.40;;;6.10;99.90;;;;;;5028112;28;20503;-75
2021/12/07 11:17:38;;;;;;;28.15;6.97;;;6.10;99.90;;;;;;5028780;28;20041;-76
2021/12/07 11:20:05;;;;;;;27.50;7.45;;;6.10;99.90;;;;;;5032639;28;20032;-75
2021/12/07 11:22:34;;;;;;;30.42;7.50;;;6.10;99.90;;;;;;5030596;28;20022;-76
2021/12/07 11:25:03;;;;;;;35.85;7.20;;;6.10;99.90;;;;;;5030307;28;20519;-75
2021/12/07 11:30:29;;;;;;;41.97;9.65;;;6.00;99.90;;;;;;5031032;28;20125;-75
2021/12/07 11:32:57;;;;;;;38.25;9.18;;;6.00;99.90;;;;;;5033168;28;20036;-75
2021/12/07 11:35:34;;;;;;;55.15;10.32;;;5.90;99.90;;;;;;5036938;28;20025;-75
2021/12/07 11:38:05;;;;;;;43.97;9.63;;;5.90;99.90;;;;;;5049911;28;20025;-74
2021/12/07 11:40:36;;;;;;;44.75;10.68;;;5.90;99.90;;;;;;5048894;28;20025;-75
2021/12/07 11:43:02;;;;;;;44.22;10.32;;;5.90;99.90;;;;;;5032544;28;20029;-75
2021/12/07 11:45:33;;;;;;;46.13;9.88;;;5.90;99.90;;;;;;5029550;28;20034;-75
2021/12/07 11:48:05;;;;;;;46.03;9.55;;;5.90;99.90;;;;;;5029120;28;20025;-74
2021/12/07 11:50:42;;;;;;;39.50;8.10;;;6.00;99.90;;;;;;5033348;28;20026;-74
2021/12/07 11:53:15;;;;;;;26.25;6.03;;;6.00;99.90;;;;;;5040231;28;20129;-75
2021/12/07 11:55:43;;;;;;;30.13;8.60;;;6.10;99.90;;;;;;5044465;28;20022;-75
2021/12/07 11:58:11;;;;;;;28.85;6.55;;;6.10;99.90;;;;;;5043391;28;20035;-75
2021/12/07 12:00:47;;;;;;;34.25;7.18;;;6.10;99.90;;;;;;5049883;28;20379;-75
2021/12/07 12:03:16;;;;;;;30.35;7.88;;;6.10;99.90;;;;;;5038991;28;20104;-75
2021/12/07 12:05:44;;;;;;;26.70;6.20;;;6.20;99.90;;;;;;5041542;28;20089;-75
2021/12/07 12:08:13;;;;;;;20.85;4.55;;;6.20;99.90;;;;;;5037905;28;20085;-75
2021/12/07 12:10:42;;;;;;;13.05;3.53;;;6.30;99.90;;;;;;5046037;28;20109;-76
2021/12/07 12:13:14;;;;;;;15.25;3.42;;;6.30;99.90;;;;;;5037616;28;20022;-75
2021/12/07 12:16:17;;;;;;;11.88;3.40;;;6.30;99.90;;;;;;5038606;28;20332;-75
2021/12/07 12:19:15;;;;;;;13.93;3.03;;;6.30;99.90;;;;;;5037291;28;20029;-76
2021/12/07 12:21:50;;;;;;;14.40;2.80;;;6.30;99.90;;;;;;5040018;27;20506;-75
2021/12/07 12:24:47;;;;;;;13.93;2.88;;;6.30;99.90;;;;;;5044256;28;20041;-75
2021/12/07 12:27:20;;;;;;;8.68;2.88;;;6.30;99.90;;;;;;5041924;28;20073;-75
2021/12/07 12:29:50;;;;;;;14.77;3.10;;;6.30;99.90;;;;;;5045676;28;20497;-75
2021/12/07 12:32:30;;;;;;;15.77;2.63;;;6.30;99.90;;;;;;5063697;27;20029;-75
2021/12/07 12:34:57;;;;;;;11.82;3.30;;;6.30;99.90;;;;;;5056574;27;20028;-76
2021/12/07 12:37:27;;;;;;;11.73;2.72;;;6.30;99.90;;;;;;5042163;28;20111;-75
2021/12/07 12:40:10;;;;;;;17.77;4.85;;;6.30;99.90;;;;;;5039395;28;20043;-75
2021/12/07 12:42:42;;;;;;;11.95;3.80;;;6.30;99.90;;;;;;5054664;27;20040;-75
2021/12/07 12:45:17;;;;;;;17.05;4.50;;;6.30;99.90;;;;;;5041837;28;20040;-75
2021/12/07 12:47:43;;;;;;;16.98;5.30;;;6.30;99.90;;;;;;5046211;28;20033;-75
2021/12/07 12:50:14;;;;;;;14.43;4.82;;;6.40;99.90;;;;;;5042801;28;20106;-74
2021/12/07 12:52:44;;;;;;;19.85;5.32;;;6.40;99.90;;;;;;5050211;28;20032;-75
2021/12/07 12:55:42;;;;;;;17.20;5.38;;;6.40;99.90;;;;;;5037429;28;20029;-75
2021/12/07 12:58:15;;;;;;;15.50;4.68;;;6.40;99.90;;;;;;5042031;28;20111;-75
2021/12/07 13:01:02;;;;;;;20.15;4.50;;;6.40;99.90;;;;;;5048729;28;20041;-76
2021/12/07 13:03:43;;;;;;;12.15;3.85;;;6.40;99.90;;;;;;5052866;28;20081;-76
2021/12/07 13:06:15;;;;;;;17.25;4.43;;;6.30;99.90;;;;;;5052419;28;20040;-76
2021/12/07 13:09:00;;;;;;;12.65;4.28;;;6.30;99.90;;;;;;5045470;28;20021;-75
2021/12/07 13:11:34;;;;;;;18.33;3.75;;;6.30;99.90;;;;;;5032472;28;20025;-75
2021/12/07 13:14:00;;;;;;;16.65;4.30;;;6.30;99.90;;;;;;5041790;28;20398;-75
2021/12/07 13:16:27;;;;;;;18.75;3.90;;;6.30;99.90;;;;;;5033913;28;20470;-76
2021/12/07 13:19:05;;;;;;;17.17;3.97;;;6.30;99.90;;;;;;5032375;28;20025;-75
2021/12/07 13:21:35;;;;;;;18.13;3.83;;;6.30;99.90;;;;;;5032357;28;20028;-76
2021/12/07 13:24:05;;;;;;;21.83;6.57;;;6.30;99.90;;;;;;5043676;28;20060;-76
2021/12/07 13:26:43;;;;;;;16.73;3.33;;;6.30;99.90;;;;;;5049029;28;20025;-76
2021/12/07 13:29:14;;;;;;;13.80;3.03;;;6.30;99.90;;;;;;5033290;28;20047;-75
2021/12/07 13:31:44;;;;;;;16.00;3.47;;;6.30;99.90;;;;;;5033366;28;20029;-75
2021/12/07 13:34:14;;;;;;;14.98;3.20;;;6.30;99.90;;;;;;5033219;28;20033;-76
2021/12/07 13:36:47;;;;;;;16.60;3.90;;;6.30;99.90;;;;;;5032814;28;20033;-75
2021/12/07 13:39:13;;;;;;;19.88;3.78;;;6.30;99.90;;;;;;5048672;28;20022;-75
2021/12/07 13:41:53;;;;;;;16.02;3.63;;;6.30;99.90;;;;;;5043884;28;20348;-75
2021/12/07 13:44:19;;;;;;;18.42;4.22;;;6.30;99.90;;;;;;5040897;28;20044;-76
2021/12/07 13:46:45;;;;;;;19.45;3.22;;;6.30;99.90;;;;;;5049845;28;20129;-76
2021/12/07 13:49:13;;;;;;;14.25;3.28;;;6.30;99.90;;;;;;5058309;27;20025;-76
2021/12/07 13:51:39;;;;;;;17.50;3.95;;;6.20;99.90;;;;;;5047572;28;20025;-75
2021/12/07 13:54:07;;;;;;;20.73;4.07;;;6.20;99.90;;;;;;5043983;28;20025;-76
2021/12/07 13:56:37;;;;;;;18.52;4.38;;;6.20;99.90;;;;;;5062942;27;20057;-76
2021/12/07 13:59:10;;;;;;;20.38;3.97;;;6.20;99.90;;;;;;5037143;28;20439;-76
2021/12/07 14:01:38;;;;;;;11.68;3.75;;;6.20;99.90;;;;;;5042705;28;20475;-76
2021/12/07 14:04:05;;;;;;;13.98;4.00;;;6.20;99.90;;;;;;5043312;28;20029;-77
2021/12/07 14:06:32;;;;;;;20.90;5.68;;;6.20;99.90;;;;;;5041242;28;20021;-75
2021/12/07 14:09:06;;;;;;;17.55;4.25;;;6.20;99.90;;;;;;5035967;28;20453;-76
2021/12/07 14:11:32;;;;;;;15.18;3.80;;;6.20;99.90;;;;;;5050789;28;20017;-76
2021/12/07 14:13:58;;;;;;;17.05;3.78;;;6.20;99.90;;;;;;5056004;28;20078;-76
2021/12/07 14:16:27;;;;;;;22.00;3.92;;;6.20;99.90;;;;;;5034549;28;20044;-75
2021/12/07 14:18:54;;;;;;;18.48;3.80;;;6.20;99.90;;;;;;5034088;28;20065;-76
2021/12/07 14:21:20;;;;;;;21.05;3.75;;;6.10;99.90;;;;;;5033592;28;20021;-76
2021/12/07 14:23:51;;;;;;;17.48;4.53;;;6.10;99.90;;;;;;5037925;28;20032;-76
2021/12/07 14:26:25;;;;;;;17.85;3.75;;;6.10;99.90;;;;;;5033453;28;20025;-76
2021/12/07 14:28:53;;;;;;;18.23;4.05;;;6.10;99.90;;;;;;5036921;28;20076;-76
2021/12/07 14:31:36;;;;;;;15.85;3.45;;;6.10;99.90;;;;;;5034678;28;20098;-76